createdAt,value
2022-12-27T06:44:26.602Z,1.54
2022-12-27T06:45:28.725Z,1.65
2022-12-27T06:46:31.880Z,1.45
2022-12-27T06:47:33.998Z,1.90
2022-12-27T06:48:37.505Z,1.61
2022-12-27T06:49:40.681Z,1.64
2022-12-27T06:50:42.947Z,1.64
2022-12-27T06:51:50.371Z,1.61
2022-12-27T06:52:56.386Z,1.31
2022-12-27T06:53:59.472Z,1.72
2022-12-27T06:55:01.577Z,1.38
2022-12-27T06:56:06.572Z,1.47
2022-12-27T06:57:08.734Z,1.67
2022-12-27T06:58:12.866Z,1.42
2022-12-27T06:59:15.005Z,1.20
2022-12-27T07:00:20.780Z,1.31
2022-12-27T07:01:25.931Z,1.62
2022-12-27T07:02:29.523Z,1.58
2022-12-27T07:03:31.661Z,1.51
2022-12-27T07:04:34.736Z,1.35
2022-12-27T07:05:37.364Z,1.28
2022-12-27T07:06:40.570Z,1.57
2022-12-27T07:07:42.779Z,1.59
2022-12-27T07:08:47.188Z,1.87
2022-12-27T07:09:49.344Z,1.66
2022-12-27T07:10:52.570Z,1.38
2022-12-27T07:11:54.677Z,1.39
2022-12-27T07:12:57.922Z,1.57
2022-12-27T07:14:00.310Z,1.67
2022-12-27T07:15:03.615Z,1.32
2022-12-27T07:16:10.183Z,1.41
2022-12-27T07:17:13.328Z,1.52
2022-12-27T07:18:15.473Z,1.63
2022-12-27T07:19:18.654Z,1.68
2022-12-27T07:20:20.822Z,1.64
2022-12-27T07:21:27.772Z,1.44
2022-12-27T07:22:30.098Z,1.49
2022-12-27T07:23:33.635Z,1.56
2022-12-27T07:24:35.824Z,1.66
2022-12-27T07:25:38.939Z,1.62
2022-12-27T07:26:41.091Z,1.61
2022-12-27T07:27:44.224Z,1.54
2022-12-27T07:28:46.423Z,1.59
2022-12-27T07:29:49.619Z,1.53
2022-12-27T07:30:51.760Z,1.49
2022-12-27T07:31:56.398Z,1.80
2022-12-27T07:32:58.588Z,1.94
2022-12-27T07:34:04.349Z,1.69
2022-12-27T07:35:07.043Z,1.65
2022-12-27T07:36:14.598Z,1.60
2022-12-27T07:37:18.160Z,1.77
2022-12-27T07:38:20.323Z,1.47
2022-12-27T07:39:23.564Z,1.45
2022-12-27T07:40:25.888Z,1.39
2022-12-27T07:41:29.015Z,1.29
2022-12-27T07:42:31.086Z,1.26
2022-12-27T07:43:35.375Z,1.52
2022-12-27T07:44:37.746Z,1.75
2022-12-27T07:45:40.874Z,1.68
2022-12-27T07:46:43.097Z,1.65
2022-12-27T07:47:47.556Z,1.84
2022-12-27T07:48:50.754Z,1.66
2022-12-27T07:49:53.877Z,1.43
2022-12-27T07:50:56.150Z,1.79
2022-12-27T07:51:59.284Z,2.02
2022-12-27T07:53:01.438Z,1.94
2022-12-27T07:54:04.922Z,1.94
2022-12-27T07:55:07.628Z,1.37
2022-12-27T07:56:13.150Z,1.22
2022-12-27T07:57:15.302Z,1.62
2022-12-27T07:58:18.568Z,1.51
2022-12-27T07:59:22.260Z,1.84
2022-12-27T08:00:25.357Z,1.89
2022-12-27T08:01:29.520Z,1.89
2022-12-27T08:02:32.877Z,1.85
2022-12-27T08:03:37.447Z,1.86
2022-12-27T08:04:40.675Z,1.90
2022-12-27T08:05:45.722Z,1.76
2022-12-27T08:06:49.090Z,1.59
2022-12-27T08:07:51.524Z,1.55
2022-12-27T08:08:58.234Z,1.48
2022-12-27T08:10:00.421Z,1.61
2022-12-27T08:11:05.716Z,1.87
2022-12-27T08:12:09.427Z,1.60
2022-12-27T08:13:12.802Z,1.77
2022-12-27T08:14:16.043Z,1.71
2022-12-27T08:15:18.304Z,1.74
2022-12-27T08:16:24.830Z,1.74
2022-12-27T08:17:28.023Z,1.79
2022-12-27T08:18:31.389Z,1.62
2022-12-27T08:19:35.178Z,1.75
2022-12-27T08:20:38.460Z,1.65
2022-12-27T08:21:40.562Z,1.62
2022-12-27T08:22:43.748Z,1.58
2022-12-27T08:23:45.859Z,1.57
2022-12-27T08:24:49.365Z,1.84
2022-12-27T08:25:51.563Z,1.73
2022-12-27T08:26:54.800Z,1.88
2022-12-27T08:28:03.327Z,1.51
2022-12-27T08:29:06.393Z,1.60
2022-12-27T08:30:09.663Z,1.98
2022-12-27T08:31:14.475Z,1.66
2022-12-27T08:32:16.963Z,1.72
2022-12-27T08:33:20.173Z,1.80
2022-12-27T08:34:22.309Z,1.85
2022-12-27T08:35:51.571Z,1.77
2022-12-27T08:36:55.943Z,1.69
2022-12-27T08:38:01.831Z,1.54
2022-12-27T08:39:05.030Z,1.64
2022-12-27T08:40:08.560Z,1.55
2022-12-27T08:41:11.727Z,1.71
2022-12-27T08:42:14.228Z,1.52
2022-12-27T08:43:17.339Z,1.88
2022-12-27T08:44:19.472Z,1.76
2022-12-27T08:45:22.661Z,1.72
2022-12-27T08:46:25.059Z,1.57
2022-12-27T08:47:28.308Z,1.61
2022-12-27T08:48:32.568Z,1.66
2022-12-27T08:49:35.785Z,1.48
2022-12-27T08:50:39.303Z,1.51
2022-12-27T08:51:42.509Z,1.58
2022-12-27T08:52:44.767Z,1.50
2022-12-27T08:53:50.562Z,1.72
2022-12-27T08:54:52.671Z,1.42
2022-12-27T08:55:57.307Z,1.49
2022-12-27T08:57:02.307Z,1.61
2022-12-27T08:58:15.497Z,1.64
2022-12-27T08:59:19.057Z,1.59
2022-12-27T09:00:21.351Z,1.63
2022-12-27T09:01:25.774Z,1.51
2022-12-27T09:02:28.468Z,1.65
2022-12-27T09:03:31.799Z,1.85
2022-12-27T09:04:34.929Z,1.54
2022-12-27T09:05:41.597Z,1.50
2022-12-27T09:06:46.553Z,1.85
2022-12-27T09:07:48.780Z,1.85
2022-12-27T09:08:54.660Z,1.80
2022-12-27T09:09:57.876Z,1.70
2022-12-27T09:11:08.405Z,1.63
2022-12-27T09:12:11.552Z,1.69
2022-12-27T09:13:13.775Z,1.49
2022-12-27T09:14:17.169Z,1.49
2022-12-27T09:15:19.463Z,1.44
2022-12-27T09:16:25.166Z,1.69
2022-12-27T09:17:27.860Z,1.87
2022-12-27T09:18:31.020Z,1.58
2022-12-27T09:19:33.221Z,1.83
2022-12-27T09:20:36.360Z,1.58
2022-12-27T09:21:44.013Z,1.82
2022-12-27T09:22:48.561Z,1.75
2022-12-27T09:23:52.457Z,1.42
2022-12-27T09:24:54.614Z,1.74
2022-12-27T09:25:57.777Z,1.63
2022-12-27T09:26:59.922Z,1.94
2022-12-27T09:28:03.191Z,1.85
2022-12-27T09:29:06.295Z,1.40
2022-12-27T09:30:10.423Z,1.39
2022-12-27T09:31:14.192Z,1.44
2022-12-27T09:32:17.419Z,1.88
2022-12-27T09:33:19.591Z,1.72
2022-12-27T09:34:22.739Z,1.52
2022-12-27T09:35:24.871Z,1.75
2022-12-27T09:36:30.603Z,1.65
2022-12-27T09:37:33.741Z,1.63
2022-12-27T09:38:38.287Z,1.54
2022-12-27T09:39:41.392Z,1.61
2022-12-27T09:40:53.419Z,1.80
2022-12-27T09:43:40.987Z,1.40
2022-12-27T09:44:51.420Z,1.28
2022-12-27T09:45:59.867Z,1.43
2022-12-27T09:47:12.050Z,1.54
2022-12-27T09:48:26.283Z,1.46
2022-12-27T09:49:39.428Z,1.78
2022-12-27T09:50:50.346Z,1.66
2022-12-27T09:51:59.244Z,1.62
2022-12-27T09:53:09.921Z,1.80
2022-12-27T09:54:16.315Z,1.57
2022-12-27T09:55:24.864Z,1.63
2022-12-27T09:56:54.060Z,1.63
2022-12-27T09:58:04.372Z,1.43
2022-12-27T09:59:20.195Z,1.45
2022-12-27T10:00:34.240Z,1.40
2022-12-27T10:01:41.471Z,1.60
2022-12-27T10:02:45.373Z,1.88
2022-12-27T10:03:49.071Z,1.93
2022-12-27T10:05:19.927Z,1.60
2022-12-27T10:06:48.595Z,1.53
2022-12-27T10:08:12.234Z,1.99
2022-12-27T10:09:31.883Z,1.45
2022-12-27T10:10:43.465Z,1.75
2022-12-27T10:11:59.704Z,1.85
2022-12-27T10:13:16.897Z,1.63
2022-12-27T10:14:40.539Z,1.78
2022-12-27T10:15:52.201Z,1.60
2022-12-27T10:17:04.014Z,1.46
2022-12-27T10:18:21.477Z,1.49
2022-12-27T10:19:39.973Z,1.73
2022-12-27T10:20:58.555Z,2.03
2022-12-27T10:22:28.539Z,1.69
2022-12-27T10:23:34.839Z,1.81
2022-12-27T10:24:46.658Z,1.66
2022-12-27T10:26:01.041Z,1.50
2022-12-27T10:27:11.490Z,1.84
2022-12-27T10:28:18.743Z,1.67
2022-12-27T10:29:23.859Z,1.61
2022-12-27T10:30:28.284Z,1.58
2022-12-27T10:31:32.552Z,1.50
2022-12-27T10:32:35.664Z,1.71
2022-12-27T10:33:40.225Z,1.64
2022-12-27T10:34:42.675Z,1.62
2022-12-27T10:35:45.806Z,1.51
2022-12-27T10:36:49.093Z,1.59
2022-12-27T10:37:53.549Z,1.66
2022-12-27T10:38:57.016Z,1.75
2022-12-27T10:40:10.251Z,1.56
2022-12-27T10:41:33.493Z,1.39
2022-12-27T10:42:39.836Z,1.57
2022-12-27T10:43:45.450Z,2.00
2022-12-27T10:44:48.691Z,1.74
2022-12-27T10:45:51.070Z,1.72
2022-12-27T10:47:28.195Z,1.71
2022-12-27T10:48:47.477Z,1.87
2022-12-27T10:50:11.172Z,1.74
2022-12-27T10:51:15.376Z,1.57
2022-12-27T10:52:23.404Z,1.58
2022-12-27T10:53:39.349Z,1.94
2022-12-27T10:54:53.024Z,1.46
2022-12-27T10:56:15.381Z,1.91
2022-12-27T10:57:26.996Z,1.56
2022-12-27T10:58:38.995Z,1.52
2022-12-27T10:59:42.127Z,1.70
2022-12-27T11:00:53.279Z,1.70
2022-12-27T11:02:18.083Z,1.82
2022-12-27T11:03:20.449Z,1.70
2022-12-27T11:04:26.088Z,1.60
2022-12-27T11:05:30.129Z,1.56
2022-12-27T11:06:33.244Z,1.71
2022-12-27T11:07:36.440Z,1.97
2022-12-27T11:08:38.534Z,1.93
2022-12-27T11:09:50.350Z,1.96
2022-12-27T11:11:15.996Z,1.92
2022-12-27T11:12:23.724Z,1.76
2022-12-27T11:13:25.869Z,1.60
2022-12-27T11:14:29.100Z,1.69
2022-12-27T11:15:34.876Z,1.67
2022-12-27T11:16:40.846Z,1.62
2022-12-27T11:17:48.190Z,1.75
2022-12-27T11:18:56.634Z,1.99
2022-12-27T11:20:07.052Z,2.24
2022-12-27T11:21:23.893Z,1.98
2022-12-27T11:22:29.164Z,2.13
2022-12-27T11:23:37.536Z,2.15
2022-12-27T11:24:48.067Z,2.50
2022-12-27T11:25:54.640Z,2.87
2022-12-27T11:27:01.325Z,2.69
2022-12-27T11:28:08.323Z,2.97
2022-12-27T11:29:19.450Z,2.94
2022-12-27T11:30:25.249Z,2.22
2022-12-27T11:31:36.827Z,2.14
2022-12-27T13:19:19.139Z,1.65
2022-12-27T13:20:51.071Z,1.56
2022-12-27T13:22:07.352Z,1.55
2022-12-27T13:23:25.392Z,1.77
2022-12-27T13:24:50.181Z,1.78
2022-12-27T13:26:08.137Z,1.77
2022-12-27T13:27:22.362Z,1.68
2022-12-27T13:28:39.119Z,1.65
2022-12-27T13:30:04.705Z,1.41
2022-12-27T13:31:29.451Z,1.23
2022-12-27T13:32:59.890Z,1.29
2022-12-27T13:34:21.121Z,1.12
2022-12-27T13:35:34.542Z,1.40
2022-12-27T13:36:57.479Z,1.70
2022-12-27T13:38:24.563Z,1.78
2022-12-27T13:39:56.689Z,2.28
2022-12-27T13:41:30.432Z,3.11
2022-12-27T13:42:56.127Z,2.16
2022-12-27T13:44:34.835Z,1.97
2022-12-27T13:46:00.486Z,1.75
2022-12-27T13:47:41.507Z,1.57
2022-12-27T13:49:08.398Z,1.57
2022-12-27T13:50:52.825Z,1.41
2022-12-27T13:52:06.410Z,1.30
2022-12-27T13:53:43.342Z,1.28
2022-12-27T13:55:06.712Z,1.16
2022-12-27T13:56:53.254Z,1.54
2022-12-27T13:58:25.540Z,1.56
2022-12-27T13:59:51.926Z,1.62
2022-12-27T14:01:05.128Z,1.60
2022-12-27T14:02:42.314Z,1.53
2022-12-27T14:04:15.935Z,1.49
2022-12-27T14:06:01.862Z,1.45
2022-12-27T14:07:41.632Z,1.74
2022-12-27T14:09:11.563Z,1.53
2022-12-27T14:10:27.731Z,1.40
2022-12-27T14:11:47.636Z,1.54
2022-12-27T14:13:02.438Z,1.66
2022-12-27T14:14:08.418Z,1.46
2022-12-27T14:15:19.116Z,1.81
2022-12-27T14:16:40.329Z,1.66
2022-12-27T14:17:55.895Z,1.59
2022-12-27T14:19:27.649Z,1.72
2022-12-27T14:20:58.041Z,1.80
2022-12-27T14:22:32.708Z,1.93
2022-12-27T14:24:02.018Z,2.12
2022-12-27T14:25:51.855Z,1.95
2022-12-27T14:27:48.262Z,2.35
2022-12-27T14:29:27.679Z,1.92
2022-12-27T14:31:04.709Z,1.85
2022-12-27T14:32:43.250Z,1.84
2022-12-27T14:34:18.755Z,2.04
2022-12-27T14:36:13.891Z,2.16
2022-12-27T14:37:50.569Z,1.98
2022-12-27T14:39:32.079Z,1.62
2022-12-27T14:41:18.252Z,2.03
2022-12-27T14:45:43.038Z,1.81
2022-12-27T14:47:21.758Z,2.20
2022-12-27T14:49:05.588Z,1.89
2022-12-27T14:51:26.124Z,2.01
2022-12-27T14:53:25.986Z,2.59
2022-12-27T14:55:04.202Z,2.22
2022-12-27T14:56:28.370Z,2.34
2022-12-27T14:57:42.398Z,2.27
2022-12-27T14:59:03.646Z,2.54
2022-12-27T15:00:16.867Z,4.52
2022-12-27T15:01:39.255Z,4.01
2022-12-27T15:03:07.385Z,4.08
2022-12-27T15:04:53.323Z,4.91
2022-12-27T15:06:12.141Z,5.10
2022-12-27T15:07:36.198Z,5.11
2022-12-27T15:09:07.163Z,3.32
2022-12-27T15:10:21.963Z,3.30
2022-12-27T15:11:53.893Z,3.16
2022-12-27T15:13:12.846Z,3.53
2022-12-27T15:14:35.193Z,3.41
2022-12-27T15:15:56.820Z,3.86
2022-12-27T15:17:14.134Z,3.45
2022-12-27T15:18:43.275Z,3.71
2022-12-27T15:20:16.469Z,3.46
2022-12-27T15:21:41.390Z,3.41
2022-12-27T15:23:01.270Z,3.67
2022-12-27T15:24:19.472Z,3.51
2022-12-27T15:25:42.809Z,3.23
2022-12-27T15:26:54.953Z,3.15
2022-12-27T15:28:10.043Z,3.28
2022-12-27T15:29:36.972Z,3.44
2022-12-27T15:30:51.720Z,4.34
2022-12-27T15:32:08.878Z,4.18
2022-12-27T15:33:25.629Z,3.89
2022-12-27T15:34:55.399Z,4.91
2022-12-27T15:36:07.657Z,3.04
2022-12-27T15:37:48.442Z,2.78
2022-12-27T15:38:55.040Z,3.03
2022-12-27T15:39:58.290Z,3.06
2022-12-27T15:41:33.049Z,3.03
2022-12-27T15:42:52.271Z,3.15
2022-12-27T15:44:36.620Z,3.06
2022-12-27T15:46:35.931Z,3.37
2022-12-27T15:48:01.848Z,3.66
2022-12-27T15:49:23.248Z,3.75
2022-12-27T15:50:41.560Z,3.96
2022-12-27T15:52:23.928Z,3.54
2022-12-27T15:53:53.247Z,3.33
2022-12-27T15:55:17.816Z,3.20
2022-12-27T15:56:51.857Z,3.24
2022-12-27T15:58:20.480Z,3.24
2022-12-27T15:59:41.644Z,3.63
2022-12-27T16:00:47.348Z,3.45
2022-12-27T16:02:28.286Z,3.48
2022-12-27T16:03:38.224Z,3.13
2022-12-27T16:04:48.822Z,2.93
2022-12-27T16:05:53.977Z,3.47
2022-12-27T16:07:03.882Z,3.00
2022-12-27T16:08:35.856Z,2.99
2022-12-27T16:09:38.676Z,3.12
2022-12-27T16:10:51.444Z,3.51
2022-12-27T16:12:10.474Z,3.96
2022-12-27T16:13:43.284Z,3.84
2022-12-27T16:14:47.193Z,3.36
2022-12-27T16:15:52.685Z,3.59
2022-12-27T16:17:10.064Z,3.60
2022-12-27T16:19:08.501Z,3.40
2022-12-27T16:20:17.811Z,3.31
2022-12-27T16:21:23.706Z,3.38
2022-12-27T16:22:34.559Z,3.72
2022-12-27T16:23:43.839Z,3.79
2022-12-27T16:24:47.158Z,3.12
2022-12-27T16:25:49.653Z,3.22
2022-12-27T16:26:59.425Z,3.50
2022-12-27T16:28:07.858Z,3.60
2022-12-27T16:29:16.719Z,3.41
2022-12-27T16:30:36.869Z,3.49
2022-12-27T16:31:50.282Z,3.85
2022-12-27T16:32:52.737Z,3.44
2022-12-27T16:33:59.195Z,3.52
2022-12-27T16:35:14.701Z,3.18
2022-12-27T16:36:23.422Z,3.39
2022-12-27T16:37:31.188Z,3.77
2022-12-27T16:38:36.855Z,3.89
2022-12-27T16:40:01.399Z,3.75
2022-12-27T16:41:15.360Z,3.78
2022-12-27T16:42:30.858Z,3.78
2022-12-27T16:43:55.507Z,3.85
2022-12-27T16:45:25.468Z,3.59
2022-12-27T16:46:52.322Z,4.18
2022-12-27T16:48:12.237Z,4.30
2022-12-27T16:50:00.991Z,4.46
2022-12-27T16:51:17.885Z,4.97
2022-12-27T16:52:47.398Z,5.56
2022-12-27T16:54:04.399Z,5.25
2022-12-27T16:55:27.685Z,4.36
2022-12-27T16:56:34.592Z,4.64
2022-12-27T16:57:44.157Z,4.32
2022-12-27T16:58:48.439Z,4.92
2022-12-27T16:59:59.527Z,4.47
2022-12-27T17:01:05.620Z,4.57
2022-12-27T17:02:32.537Z,4.17
2022-12-27T17:03:56.861Z,4.20
2022-12-27T17:05:01.456Z,5.07
2022-12-27T17:06:43.236Z,3.95
2022-12-27T17:08:15.160Z,4.23
2022-12-27T17:09:44.513Z,4.27
2022-12-27T17:11:23.518Z,3.50
2022-12-27T17:12:29.191Z,3.84
2022-12-27T17:13:47.595Z,3.87
2022-12-27T17:15:02.968Z,3.67
2022-12-27T17:16:16.215Z,4.00
2022-12-27T17:17:24.348Z,3.54
2022-12-27T17:18:31.461Z,3.84
2022-12-27T17:19:41.132Z,4.33
2022-12-27T17:20:45.011Z,3.55
2022-12-27T17:21:57.741Z,3.63
2022-12-27T17:22:59.913Z,4.02
2022-12-27T17:24:09.112Z,4.16
2022-12-27T17:25:22.761Z,4.41
2022-12-27T17:26:43.023Z,3.62
2022-12-27T17:28:04.803Z,4.02
2022-12-27T17:29:37.799Z,3.31
2022-12-27T17:30:54.760Z,3.68
2022-12-27T17:32:09.509Z,3.81
2022-12-27T17:33:33.824Z,3.82
2022-12-27T17:35:04.933Z,3.86
2022-12-27T17:36:26.423Z,3.53
2022-12-27T17:37:41.827Z,3.66
2022-12-27T17:38:58.690Z,3.86
2022-12-27T17:40:22.499Z,4.38
2022-12-27T17:41:57.936Z,3.96
2022-12-27T17:43:37.394Z,4.12
2022-12-27T17:45:03.796Z,4.02
2022-12-27T17:46:25.036Z,4.10
2022-12-27T17:47:51.737Z,4.10
2022-12-27T17:48:54.960Z,3.49
2022-12-27T17:50:01.658Z,4.13
2022-12-27T17:51:10.676Z,4.83
2022-12-27T17:52:35.797Z,4.32
2022-12-27T17:54:04.487Z,4.44
2022-12-27T17:55:43.688Z,5.25
2022-12-27T17:57:12.161Z,4.72
2022-12-27T17:58:17.635Z,4.01
2022-12-27T17:59:27.931Z,4.47
2022-12-27T18:00:36.539Z,4.59
2022-12-27T18:01:47.928Z,4.53
2022-12-27T18:02:53.598Z,4.23
2022-12-27T18:03:57.037Z,5.18
2022-12-27T18:05:05.886Z,4.70
